Terminal Aerodrome Forecast
Issued by NWS

Home | Current Version | Previous Version | Text Only | Print | Product List | Glossary On
Versions: 1 2 3 4 5 6 7 8 9 10 11 12 13 14 15 16 17
000
FTUS43 KICT 241731
TAFCNU
TAF
KCNU 241731Z 2418/2518 17018G28KT P6SM OVC015
     FM242200 18020G30KT P6SM BKN035
     FM250300 18018G28KT P6SM OVC025
     FM250800 21012KT P6SM VCTS SCT009 BKN015CB=

USA.gov is the U.S. government's official web portal to all federal, state and local government web resources and services.